sensor_id;sensor_type;location;lat;lon;timestamp;pressure;altitude;pressure_sealevel;temperature;humidity
55277;BME280;41136;51.478;-2.610;2023-01-01T00:00:09;99356.08;;;9.93;100.00
55277;BME280;41136;51.478;-2.610;2023-01-01T00:02:33;99353.01;;;9.31;100.00
55277;BME280;41136;51.478;-2.610;2023-01-01T00:04:59;99352.96;;;10.13;100.00
55277;BME280;41136;51.478;-2.610;2023-01-01T00:07:24;99367.47;;;10.62;100.00
55277;BME280;41136;51.478;-2.610;2023-01-01T00:09:50;99369.75;;;10.60;100.00
55277;BME280;41136;51.478;-2.610;2023-01-01T00:12:15;99374.29;;;9.71;100.00
55277;BME280;41136;51.478;-2.610;2023-01-01T00:14:40;99370.65;;;10.30;100.00
55277;BME280;41136;51.478;-2.610;2023-01-01T00:17:05;99376.04;;;10.29;100.00
55277;BME280;41136;51.478;-2.610;2023-01-01T00:19:31;99382.49;;;10.06;100.00
55277;BME280;41136;51.478;-2.610;2023-01-01T00:21:56;99384.67;;;10.11;100.00
55277;BME280;41136;51.478;-2.610;2023-01-01T00:24:21;99378.91;;;11.05;100.00
55277;BME280;41136;51.478;-2.610;2023-01-01T00:26:48;99379.14;;;10.18;100.00
55277;BME280;41136;51.478;-2.610;2023-01-01T00:29:12;99381.38;;;9.42;100.00
55277;BME280;41136;51.478;-2.610;2023-01-01T00:31:38;99387.08;;;9.34;100.00
55277;BME280;41136;51.478;-2.610;2023-01-01T00:34:03;99396.68;;;10.18;100.00
55277;BME280;41136;51.478;-2.610;2023-01-01T00:36:29;99401.27;;;9.68;100.00
55277;BME280;41136;51.478;-2.610;2023-01-01T00:38:54;99408.13;;;9.13;100.00
55277;BME280;41136;51.478;-2.610;2023-01-01T00:41:19;99405.77;;;10.06;100.00
55277;BME280;41136;51.478;-2.610;2023-01-01T00:43:44;99410.61;;;9.13;100.00
55277;BME280;41136;51.478;-2.610;2023-01-01T00:46:10;99416.57;;;9.46;100.00
55277;BME280;41136;51.478;-2.610;2023-01-01T00:48:35;99417.62;;;9.64;100.00
55277;BME280;41136;51.478;-2.610;2023-01-01T00:51:01;99420.26;;;9.34;100.00
55277;BME280;41136;51.478;-2.610;2023-01-01T00:53:26;99428.07;;;9.43;100.00
55277;BME280;41136;51.478;-2.610;2023-01-01T00:55:51;99428.98;;;10.03;100.00
55277;BME280;41136;51.478;-2.610;2023-01-01T00:58:17;99435.05;;;9.88;100.00
55277;BME280;41136;51.478;-2.610;2023-01-01T01:00:42;99436.40;;;10.10;100.00
55277;BME280;41136;51.478;-2.610;2023-01-01T01:03:07;99437.75;;;10.52;100.00
55277;BME280;41136;51.478;-2.610;2023-01-01T01:05:33;99439.59;;;10.50;100.00
55277;BME280;41136;51.478;-2.610;2023-01-01T01:07:58;99437.14;;;10.84;100.00
55277;BME280;41136;51.478;-2.610;2023-01-01T01:10:23;99440.43;;;11.08;100.00
55277;BME280;41136;51.478;-2.610;2023-01-01T01:12:48;99455.87;;;11.14;100.00
55277;BME280;41136;51.478;-2.610;2023-01-01T01:15:14;99452.91;;;11.60;100.00
55277;BME280;41136;51.478;-2.610;2023-01-01T01:17:39;99450.42;;;11.39;100.00
55277;BME280;41136;51.478;-2.610;2023-01-01T01:20:05;99450.18;;;11.28;100.00
55277;BME280;41136;51.478;-2.610;2023-01-01T01:22:30;99455.85;;;10.57;100.00
55277;BME280;41136;51.478;-2.610;2023-01-01T01:24:55;99459.06;;;11.15;100.00
55277;BME280;41136;51.478;-2.610;2023-01-01T01:27:20;99457.66;;;11.40;100.00
55277;BME280;41136;51.478;-2.610;2023-01-01T01:29:45;99457.06;;;11.51;100.00
55277;BME280;41136;51.478;-2.610;2023-01-01T01:32:11;99457.46;;;11.36;100.00
55277;BME280;41136;51.478;-2.610;2023-01-01T01:34:36;99467.86;;;11.01;100.00
55277;BME280;41136;51.478;-2.610;2023-01-01T01:37:02;99468.39;;;11.09;100.00
55277;BME280;41136;51.478;-2.610;2023-01-01T01:39:27;99463.52;;;11.10;100.00
55277;BME280;41136;51.478;-2.610;2023-01-01T01:41:52;99463.95;;;10.87;100.00
55277;BME280;41136;51.478;-2.610;2023-01-01T01:46:44;99463.15;;;10.83;100.00
55277;BME280;41136;51.478;-2.610;2023-01-01T01:49:14;99463.83;;;11.36;100.00
55277;BME280;41136;51.478;-2.610;2023-01-01T01:51:36;99468.45;;;11.11;100.00
55277;BME280;41136;51.478;-2.610;2023-01-01T01:54:02;99477.68;;;11.94;100.00
55277;BME280;41136;51.478;-2.610;2023-01-01T01:56:28;99480.72;;;10.98;100.00
55277;BME280;41136;51.478;-2.610;2023-01-01T01:58:50;99482.37;;;11.20;100.00
55277;BME280;41136;51.478;-2.610;2023-01-01T02:03:20;99494.36;;;11.04;100.00
55277;BME280;41136;51.478;-2.610;2023-01-01T02:05:43;99496.89;;;11.04;100.00
55277;BME280;41136;51.478;-2.610;2023-01-01T02:08:09;99497.02;;;11.65;100.00
55277;BME280;41136;51.478;-2.610;2023-01-01T02:10:34;99505.24;;;10.81;100.00
55277;BME280;41136;51.478;-2.610;2023-01-01T02:12:59;99512.24;;;11.65;100.00
55277;BME280;41136;51.478;-2.610;2023-01-01T02:15:28;99513.65;;;11.49;100.00
55277;BME280;41136;51.478;-2.610;2023-01-01T02:17:58;99519.07;;;11.45;100.00
55277;BME280;41136;51.478;-2.610;2023-01-01T02:20:24;99521.67;;;12.07;100.00
55277;BME280;41136;51.478;-2.610;2023-01-01T02:22:49;99520.75;;;11.36;100.00
55277;BME280;41136;51.478;-2.610;2023-01-01T02:25:11;99516.34;;;12.10;100.00
55277;BME280;41136;51.478;-2.610;2023-01-01T02:27:36;99520.88;;;11.97;100.00
55277;BME280;41136;51.478;-2.610;2023-01-01T02:30:00;99522.34;;;11.20;100.00
55277;BME280;41136;51.478;-2.610;2023-01-01T02:32:25;99522.41;;;12.19;100.00
55277;BME280;41136;51.478;-2.610;2023-01-01T02:34:51;99526.97;;;10.85;100.00
55277;BME280;41136;51.478;-2.610;2023-01-01T02:37:15;99533.57;;;12.16;100.00
55277;BME280;41136;51.478;-2.610;2023-01-01T02:39:43;99532.02;;;12.04;100.00
55277;BME280;41136;51.478;-2.610;2023-01-01T02:42:06;99532.25;;;11.65;100.00
55277;BME280;41136;51.478;-2.610;2023-01-01T02:44:31;99533.24;;;11.33;100.00
55277;BME280;41136;51.478;-2.610;2023-01-01T02:46:54;99537.70;;;11.62;100.00
55277;BME280;41136;51.478;-2.610;2023-01-01T02:49:19;99538.50;;;11.18;100.00
55277;BME280;41136;51.478;-2.610;2023-01-01T02:51:57;99538.85;;;11.35;100.00
55277;BME280;41136;51.478;-2.610;2023-01-01T02:54:17;99539.24;;;11.42;100.00
55277;BME280;41136;51.478;-2.610;2023-01-01T02:56:40;99549.31;;;11.74;100.00
55277;BME280;41136;51.478;-2.610;2023-01-01T03:01:30;99555.73;;;11.78;100.00
55277;BME280;41136;51.478;-2.610;2023-01-01T03:04:00;99556.85;;;11.64;100.00
55277;BME280;41136;51.478;-2.610;2023-01-01T03:06:25;99559.60;;;11.28;100.00
55277;BME280;41136;51.478;-2.610;2023-01-01T03:08:47;99563.34;;;11.13;100.00
55277;BME280;41136;51.478;-2.610;2023-01-01T03:11:10;99570.64;;;11.28;100.00
55277;BME280;41136;51.478;-2.610;2023-01-01T03:13:38;99561.80;;;12.19;100.00
55277;BME280;41136;51.478;-2.610;2023-01-01T03:16:02;99563.57;;;11.85;100.00
55277;BME280;41136;51.478;-2.610;2023-01-01T03:18:28;99566.69;;;11.26;100.00
55277;BME280;41136;51.478;-2.610;2023-01-01T03:20:50;99568.86;;;11.66;100.00
55277;BME280;41136;51.478;-2.610;2023-01-01T03:23:19;99572.66;;;11.60;100.00
55277;BME280;41136;51.478;-2.610;2023-01-01T03:25:44;99578.32;;;10.98;100.00
55277;BME280;41136;51.478;-2.610;2023-01-01T03:28:09;99579.67;;;11.38;100.00
55277;BME280;41136;51.478;-2.610;2023-01-01T03:30:33;99582.33;;;11.50;100.00
55277;BME280;41136;51.478;-2.610;2023-01-01T03:32:58;99576.28;;;11.15;100.00
55277;BME280;41136;51.478;-2.610;2023-01-01T03:35:23;99581.05;;;10.59;100.00
55277;BME280;41136;51.478;-2.610;2023-01-01T03:37:48;99581.56;;;10.76;100.00
55277;BME280;41136;51.478;-2.610;2023-01-01T03:40:12;99576.15;;;11.56;100.00
55277;BME280;41136;51.478;-2.610;2023-01-01T03:42:39;99573.70;;;11.55;100.00
55277;BME280;41136;51.478;-2.610;2023-01-01T03:45:07;99578.24;;;11.49;100.00
55277;BME280;41136;51.478;-2.610;2023-01-01T03:47:28;99580.09;;;11.52;100.00
55277;BME280;41136;51.478;-2.610;2023-01-01T03:49:55;99577.54;;;11.41;100.00
55277;BME280;41136;51.478;-2.610;2023-01-01T03:52:27;99576.51;;;11.98;100.00
55277;BME280;41136;51.478;-2.610;2023-01-01T03:54:51;99581.01;;;11.35;100.00
55277;BME280;41136;51.478;-2.610;2023-01-01T03:57:14;99586.91;;;10.83;100.00
55277;BME280;41136;51.478;-2.610;2023-01-01T03:59:40;99589.53;;;10.95;100.00
55277;BME280;41136;51.478;-2.610;2023-01-01T04:02:03;99593.47;;;11.13;100.00
55277;BME280;41136;51.478;-2.610;2023-01-01T04:04:26;99591.65;;;11.24;100.00
55277;BME280;41136;51.478;-2.610;2023-01-01T04:06:51;99585.58;;;11.03;100.00
55277;BME280;41136;51.478;-2.610;2023-01-01T04:09:22;99595.93;;;11.19;100.00
55277;BME280;41136;51.478;-2.610;2023-01-01T04:11:44;99588.78;;;11.12;100.00
55277;BME280;41136;51.478;-2.610;2023-01-01T04:14:07;99588.88;;;10.98;100.00
55277;BME280;41136;51.478;-2.610;2023-01-01T04:16:33;99584.82;;;10.76;100.00
55277;BME280;41136;51.478;-2.610;2023-01-01T04:18:58;99578.68;;;10.53;100.00
55277;BME280;41136;51.478;-2.610;2023-01-01T04:21:24;99585.48;;;11.21;100.00
55277;BME280;41136;51.478;-2.610;2023-01-01T04:23:49;99582.04;;;10.11;100.00
55277;BME280;41136;51.478;-2.610;2023-01-01T04:26:15;99581.27;;;10.43;100.00
55277;BME280;41136;51.478;-2.610;2023-01-01T04:28:41;99582.08;;;10.76;100.00
55277;BME280;41136;51.478;-2.610;2023-01-01T04:31:06;99586.66;;;10.32;100.00
55277;BME280;41136;51.478;-2.610;2023-01-01T04:36:02;99598.04;;;10.78;100.00
55277;BME280;41136;51.478;-2.610;2023-01-01T04:38:22;99602.62;;;10.60;100.00
55277;BME280;41136;51.478;-2.610;2023-01-01T04:40:56;99606.09;;;10.64;100.00
55277;BME280;41136;51.478;-2.610;2023-01-01T04:43:14;99608.02;;;10.66;100.00
55277;BME280;41136;51.478;-2.610;2023-01-01T04:45:39;99612.27;;;10.02;100.00
55277;BME280;41136;51.478;-2.610;2023-01-01T04:48:05;99625.16;;;10.64;100.00
55277;BME280;41136;51.478;-2.610;2023-01-01T04:50:30;99618.70;;;10.65;100.00
55277;BME280;41136;51.478;-2.610;2023-01-01T04:52:57;99622.06;;;10.80;100.00
55277;BME280;41136;51.478;-2.610;2023-01-01T04:55:20;99619.60;;;10.64;100.00
55277;BME280;41136;51.478;-2.610;2023-01-01T04:57:46;99632.41;;;10.83;100.00
55277;BME280;41136;51.478;-2.610;2023-01-01T05:00:12;99641.61;;;10.50;100.00
55277;BME280;41136;51.478;-2.610;2023-01-01T05:02:36;99646.68;;;11.13;100.00
55277;BME280;41136;51.478;-2.610;2023-01-01T05:05:02;99651.79;;;11.38;100.00
55277;BME280;41136;51.478;-2.610;2023-01-01T05:07:27;99652.68;;;10.82;100.00
55277;BME280;41136;51.478;-2.610;2023-01-01T05:12:18;99657.23;;;11.14;100.00
55277;BME280;41136;51.478;-2.610;2023-01-01T05:17:28;99663.30;;;11.13;100.00
55277;BME280;41136;51.478;-2.610;2023-01-01T05:19:53;99668.77;;;11.76;100.00
55277;BME280;41136;51.478;-2.610;2023-01-01T05:22:19;99664.91;;;11.15;100.00
55277;BME280;41136;51.478;-2.610;2023-01-01T05:24:44;99657.82;;;11.77;100.00
55277;BME280;41136;51.478;-2.610;2023-01-01T05:27:09;99658.74;;;11.56;100.00
55277;BME280;41136;51.478;-2.610;2023-01-01T05:29:35;99652.24;;;11.93;100.00
55277;BME280;41136;51.478;-2.610;2023-01-01T05:32:00;99665.74;;;11.87;100.00
55277;BME280;41136;51.478;-2.610;2023-01-01T05:34:26;99664.85;;;11.15;100.00
55277;BME280;41136;51.478;-2.610;2023-01-01T05:36:51;99666.23;;;10.64;100.00
55277;BME280;41136;51.478;-2.610;2023-01-01T05:39:16;99669.12;;;10.49;100.00
55277;BME280;41136;51.478;-2.610;2023-01-01T05:41:41;99682.17;;;10.56;100.00
55277;BME280;41136;51.478;-2.610;2023-01-01T05:44:07;99683.76;;;11.33;100.00
55277;BME280;41136;51.478;-2.610;2023-01-01T05:46:32;99688.48;;;11.14;100.00
55277;BME280;41136;51.478;-2.610;2023-01-01T05:48:58;99696.24;;;10.37;100.00
55277;BME280;41136;51.478;-2.610;2023-01-01T05:51:24;99713.29;;;10.25;100.00
55277;BME280;41136;51.478;-2.610;2023-01-01T05:53:48;99694.34;;;8.94;100.00
55277;BME280;41136;51.478;-2.610;2023-01-01T05:56:15;99692.43;;;8.78;100.00
55277;BME280;41136;51.478;-2.610;2023-01-01T05:58:39;99691.88;;;9.30;100.00
55277;BME280;41136;51.478;-2.610;2023-01-01T06:01:07;99693.11;;;9.24;100.00
55277;BME280;41136;51.478;-2.610;2023-01-01T06:03:29;99691.17;;;9.61;100.00
55277;BME280;41136;51.478;-2.610;2023-01-01T06:05:55;99693.53;;;9.54;100.00
55277;BME280;41136;51.478;-2.610;2023-01-01T06:08:20;99705.28;;;9.34;100.00
55277;BME280;41136;51.478;-2.610;2023-01-01T06:10:45;99705.86;;;8.89;100.00
55277;BME280;41136;51.478;-2.610;2023-01-01T06:13:11;99712.18;;;10.07;100.00
55277;BME280;41136;51.478;-2.610;2023-01-01T06:15:36;99717.58;;;9.49;100.00
55277;BME280;41136;51.478;-2.610;2023-01-01T06:18:02;99720.00;;;9.89;100.00
55277;BME280;41136;51.478;-2.610;2023-01-01T06:20:27;99735.04;;;10.44;100.00
55277;BME280;41136;51.478;-2.610;2023-01-01T06:22:52;99732.23;;;9.83;100.00
55277;BME280;41136;51.478;-2.610;2023-01-01T06:25:18;99738.82;;;10.03;100.00
55277;BME280;41136;51.478;-2.610;2023-01-01T06:27:43;99738.92;;;9.77;100.00
55277;BME280;41136;51.478;-2.610;2023-01-01T06:30:09;99744.90;;;9.88;100.00
55277;BME280;41136;51.478;-2.610;2023-01-01T06:32:34;99743.35;;;10.02;100.00
55277;BME280;41136;51.478;-2.610;2023-01-01T06:34:59;99746.69;;;9.97;100.00
55277;BME280;41136;51.478;-2.610;2023-01-01T06:37:26;99749.39;;;10.11;100.00
55277;BME280;41136;51.478;-2.610;2023-01-01T06:39:50;99754.46;;;10.00;100.00
55277;BME280;41136;51.478;-2.610;2023-01-01T06:42:15;99757.86;;;9.92;100.00
55277;BME280;41136;51.478;-2.610;2023-01-01T06:44:40;99757.21;;;10.24;100.00
55277;BME280;41136;51.478;-2.610;2023-01-01T06:47:06;99765.27;;;10.94;100.00
55277;BME280;41136;51.478;-2.610;2023-01-01T06:49:31;99769.25;;;10.26;100.00
55277;BME280;41136;51.478;-2.610;2023-01-01T06:51:57;99776.37;;;10.17;100.00
55277;BME280;41136;51.478;-2.610;2023-01-01T06:54:22;99775.50;;;10.75;100.00
55277;BME280;41136;51.478;-2.610;2023-01-01T06:56:47;99778.50;;;11.08;100.00
55277;BME280;41136;51.478;-2.610;2023-01-01T06:59:13;99781.38;;;9.80;100.00
55277;BME280;41136;51.478;-2.610;2023-01-01T07:01:38;99782.42;;;11.30;100.00
55277;BME280;41136;51.478;-2.610;2023-01-01T07:04:05;99775.19;;;11.32;100.00
55277;BME280;41136;51.478;-2.610;2023-01-01T07:06:30;99769.09;;;11.31;100.00
55277;BME280;41136;51.478;-2.610;2023-01-01T07:08:54;99770.36;;;10.86;100.00
55277;BME280;41136;51.478;-2.610;2023-01-01T07:11:19;99772.83;;;11.15;100.00
55277;BME280;41136;51.478;-2.610;2023-01-01T07:13:44;99785.32;;;10.51;100.00
55277;BME280;41136;51.478;-2.610;2023-01-01T07:16:10;99786.49;;;10.82;100.00
55277;BME280;41136;51.478;-2.610;2023-01-01T07:18:35;99799.91;;;11.19;100.00
55277;BME280;41136;51.478;-2.610;2023-01-01T07:21:02;99798.31;;;10.93;100.00
55277;BME280;41136;51.478;-2.610;2023-01-01T07:23:29;99801.77;;;10.51;100.00
55277;BME280;41136;51.478;-2.610;2023-01-01T07:25:52;99802.63;;;10.00;100.00
55277;BME280;41136;51.478;-2.610;2023-01-01T07:28:17;99793.34;;;10.35;100.00
55277;BME280;41136;51.478;-2.610;2023-01-01T07:30:42;99789.25;;;11.16;100.00
55277;BME280;41136;51.478;-2.610;2023-01-01T07:33:10;99790.01;;;10.09;100.00
55277;BME280;41136;51.478;-2.610;2023-01-01T07:35:32;99792.41;;;9.79;100.00
55277;BME280;41136;51.478;-2.610;2023-01-01T07:37:58;99779.19;;;10.77;100.00
55277;BME280;41136;51.478;-2.610;2023-01-01T07:40:23;99776.59;;;11.11;100.00
55277;BME280;41136;51.478;-2.610;2023-01-01T07:42:49;99770.65;;;11.62;100.00
55277;BME280;41136;51.478;-2.610;2023-01-01T07:45:14;99769.09;;;11.45;100.00
55277;BME280;41136;51.478;-2.610;2023-01-01T07:47:39;99768.53;;;10.92;100.00
55277;BME280;41136;51.478;-2.610;2023-01-01T07:50:05;99768.49;;;11.53;100.00
55277;BME280;41136;51.478;-2.610;2023-01-01T07:52:30;99770.74;;;10.77;100.00
55277;BME280;41136;51.478;-2.610;2023-01-01T07:54:55;99780.35;;;10.47;100.00
55277;BME280;41136;51.478;-2.610;2023-01-01T07:57:21;99780.34;;;10.66;100.00
55277;BME280;41136;51.478;-2.610;2023-01-01T07:59:46;99785.70;;;10.86;100.00
55277;BME280;41136;51.478;-2.610;2023-01-01T08:02:12;99796.39;;;11.08;100.00
55277;BME280;41136;51.478;-2.610;2023-01-01T08:04:37;99794.17;;;10.20;100.00
55277;BME280;41136;51.478;-2.610;2023-01-01T08:07:02;99790.28;;;10.50;100.00
55277;BME280;41136;51.478;-2.610;2023-01-01T08:09:27;99789.26;;;10.96;100.00
55277;BME280;41136;51.478;-2.610;2023-01-01T08:11:53;99794.20;;;10.22;100.00
55277;BME280;41136;51.478;-2.610;2023-01-01T08:14:18;99803.80;;;10.16;100.00
55277;BME280;41136;51.478;-2.610;2023-01-01T08:16:43;99794.94;;;11.20;100.00
55277;BME280;41136;51.478;-2.610;2023-01-01T08:19:09;99790.46;;;10.90;100.00
55277;BME280;41136;51.478;-2.610;2023-01-01T08:21:34;99797.16;;;10.76;100.00
55277;BME280;41136;51.478;-2.610;2023-01-01T08:23:59;99804.23;;;10.45;100.00
55277;BME280;41136;51.478;-2.610;2023-01-01T08:26:28;99811.80;;;11.24;100.00
55277;BME280;41136;51.478;-2.610;2023-01-01T08:28:50;99813.11;;;11.04;100.00
55277;BME280;41136;51.478;-2.610;2023-01-01T08:31:15;99812.00;;;11.09;100.00
55277;BME280;41136;51.478;-2.610;2023-01-01T08:33:41;99807.25;;;11.05;100.00
55277;BME280;41136;51.478;-2.610;2023-01-01T08:36:09;99810.70;;;10.93;100.00
55277;BME280;41136;51.478;-2.610;2023-01-01T08:38:31;99806.10;;;10.91;100.00
55277;BME280;41136;51.478;-2.610;2023-01-01T08:40:57;99803.90;;;11.28;100.00
55277;BME280;41136;51.478;-2.610;2023-01-01T08:43:22;99801.39;;;11.31;100.00
55277;BME280;41136;51.478;-2.610;2023-01-01T08:45:48;99800.83;;;11.39;100.00
55277;BME280;41136;51.478;-2.610;2023-01-01T08:48:13;99801.62;;;10.88;100.00
55277;BME280;41136;51.478;-2.610;2023-01-01T08:50:38;99807.44;;;11.09;100.00
55277;BME280;41136;51.478;-2.610;2023-01-01T08:53:04;99806.90;;;10.99;100.00
55277;BME280;41136;51.478;-2.610;2023-01-01T08:55:29;99805.28;;;11.47;100.00
55277;BME280;41136;51.478;-2.610;2023-01-01T08:57:54;99805.98;;;10.42;100.00
55277;BME280;41136;51.478;-2.610;2023-01-01T09:00:20;99810.71;;;10.80;100.00
55277;BME280;41136;51.478;-2.610;2023-01-01T09:02:45;99814.74;;;11.63;100.00
55277;BME280;41136;51.478;-2.610;2023-01-01T09:05:10;99817.18;;;11.26;100.00
55277;BME280;41136;51.478;-2.610;2023-01-01T09:07:36;99818.97;;;10.93;100.00
55277;BME280;41136;51.478;-2.610;2023-01-01T09:10:01;99822.35;;;11.01;100.00
55277;BME280;41136;51.478;-2.610;2023-01-01T09:12:27;99834.65;;;11.09;100.00
55277;BME280;41136;51.478;-2.610;2023-01-01T09:14:52;99842.36;;;10.97;100.00
55277;BME280;41136;51.478;-2.610;2023-01-01T09:17:17;99854.62;;;10.95;100.00
55277;BME280;41136;51.478;-2.610;2023-01-01T09:19:43;99855.75;;;11.20;100.00
55277;BME280;41136;51.478;-2.610;2023-01-01T09:22:08;99855.54;;;10.76;100.00
55277;BME280;41136;51.478;-2.610;2023-01-01T09:24:33;99851.35;;;11.13;100.00
55277;BME280;41136;51.478;-2.610;2023-01-01T09:26:58;99850.91;;;10.78;100.00
55277;BME280;41136;51.478;-2.610;2023-01-01T09:29:23;99846.45;;;10.61;100.00
55277;BME280;41136;51.478;-2.610;2023-01-01T09:31:49;99841.80;;;10.69;100.00
55277;BME280;41136;51.478;-2.610;2023-01-01T09:34:14;99851.38;;;10.17;100.00
55277;BME280;41136;51.478;-2.610;2023-01-01T09:36:40;99862.11;;;10.62;100.00
55277;BME280;41136;51.478;-2.610;2023-01-01T09:39:04;99878.44;;;10.22;100.00
55277;BME280;41136;51.478;-2.610;2023-01-01T09:41:40;99887.72;;;10.05;100.00
55277;BME280;41136;51.478;-2.610;2023-01-01T09:44:01;99897.14;;;10.21;100.00
55277;BME280;41136;51.478;-2.610;2023-01-01T09:46:22;99903.64;;;10.20;100.00
55277;BME280;41136;51.478;-2.610;2023-01-01T09:48:51;99909.55;;;10.39;100.00
55277;BME280;41136;51.478;-2.610;2023-01-01T09:51:16;99909.54;;;10.87;100.00
55277;BME280;41136;51.478;-2.610;2023-01-01T09:53:40;99915.88;;;10.74;100.00
55277;BME280;41136;51.478;-2.610;2023-01-01T09:56:03;99928.85;;;11.26;100.00
55277;BME280;41136;51.478;-2.610;2023-01-01T09:58:31;99927.27;;;10.27;100.00
55277;BME280;41136;51.478;-2.610;2023-01-01T10:00:54;99926.66;;;11.40;100.00
55277;BME280;41136;51.478;-2.610;2023-01-01T10:03:27;99920.51;;;11.16;100.00
55277;BME280;41136;51.478;-2.610;2023-01-01T10:05:50;99917.61;;;10.89;100.00
55277;BME280;41136;51.478;-2.610;2023-01-01T10:08:16;99915.38;;;10.74;100.00
55277;BME280;41136;51.478;-2.610;2023-01-01T10:10:38;99916.98;;;10.83;100.00
55277;BME280;41136;51.478;-2.610;2023-01-01T10:13:07;99914.29;;;11.08;100.00
55277;BME280;41136;51.478;-2.610;2023-01-01T10:15:30;99917.27;;;10.29;100.00
55277;BME280;41136;51.478;-2.610;2023-01-01T10:17:54;99919.23;;;11.26;100.00
55277;BME280;41136;51.478;-2.610;2023-01-01T10:20:20;99920.64;;;10.42;100.00
55277;BME280;41136;51.478;-2.610;2023-01-01T10:22:44;99930.59;;;10.59;100.00
55277;BME280;41136;51.478;-2.610;2023-01-01T10:25:14;99935.61;;;11.10;100.00
55277;BME280;41136;51.478;-2.610;2023-01-01T10:27:35;99931.81;;;11.92;100.00
55277;BME280;41136;51.478;-2.610;2023-01-01T10:30:00;99930.96;;;11.15;100.00
55277;BME280;41136;51.478;-2.610;2023-01-01T10:32:27;99924.06;;;11.60;100.00
55277;BME280;41136;51.478;-2.610;2023-01-01T10:34:49;99926.97;;;11.72;100.00
55277;BME280;41136;51.478;-2.610;2023-01-01T10:37:20;99928.30;;;11.99;100.00
55277;BME280;41136;51.478;-2.610;2023-01-01T10:39:40;99931.29;;;11.35;100.00
55277;BME280;41136;51.478;-2.610;2023-01-01T10:42:05;99938.73;;;11.05;100.00
55277;BME280;41136;51.478;-2.610;2023-01-01T10:44:33;99940.99;;;10.44;100.00
55277;BME280;41136;51.478;-2.610;2023-01-01T10:46:57;99937.27;;;12.11;100.00
55277;BME280;41136;51.478;-2.610;2023-01-01T10:49:21;99939.36;;;11.54;100.00
55277;BME280;41136;51.478;-2.610;2023-01-01T10:51:48;99942.64;;;11.75;100.00
55277;BME280;41136;51.478;-2.610;2023-01-01T10:54:22;99941.93;;;11.33;100.00
55277;BME280;41136;51.478;-2.610;2023-01-01T10:56:39;99946.12;;;11.11;100.00
55277;BME280;41136;51.478;-2.610;2023-01-01T10:59:03;99953.76;;;10.92;100.00
55277;BME280;41136;51.478;-2.610;2023-01-01T11:01:30;99946.16;;;10.66;100.00
55277;BME280;41136;51.478;-2.610;2023-01-01T11:03:57;99940.42;;;10.39;100.00
55277;BME280;41136;51.478;-2.610;2023-01-01T11:06:21;99934.89;;;11.63;100.00
55277;BME280;41136;51.478;-2.610;2023-01-01T11:08:48;99944.10;;;11.97;100.00
55277;BME280;41136;51.478;-2.610;2023-01-01T11:11:19;99943.36;;;11.51;100.00
55277;BME280;41136;51.478;-2.610;2023-01-01T11:13:35;99928.42;;;11.73;100.00
55277;BME280;41136;51.478;-2.610;2023-01-01T11:16:00;99931.69;;;11.37;100.00
55277;BME280;41136;51.478;-2.610;2023-01-01T11:18:28;99926.51;;;11.45;100.00
55277;BME280;41136;51.478;-2.610;2023-01-01T11:20:52;99923.89;;;11.18;100.00
55277;BME280;41136;51.478;-2.610;2023-01-01T11:23:19;99921.65;;;12.15;100.00
55277;BME280;41136;51.478;-2.610;2023-01-01T11:28:17;99931.60;;;11.35;100.00
55277;BME280;41136;51.478;-2.610;2023-01-01T11:30:32;99939.93;;;11.22;100.00
55277;BME280;41136;51.478;-2.610;2023-01-01T11:32:59;99935.86;;;11.43;100.00
55277;BME280;41136;51.478;-2.610;2023-01-01T11:35:24;99928.06;;;12.18;100.00
55277;BME280;41136;51.478;-2.610;2023-01-01T11:37:49;99932.42;;;12.27;100.00
55277;BME280;41136;51.478;-2.610;2023-01-01T11:40:17;99924.47;;;11.76;100.00
55277;BME280;41136;51.478;-2.610;2023-01-01T11:42:44;99915.71;;;12.46;100.00
55277;BME280;41136;51.478;-2.610;2023-01-01T11:45:11;99915.50;;;12.02;100.00
55277;BME280;41136;51.478;-2.610;2023-01-01T11:47:32;99910.75;;;12.75;100.00
55277;BME280;41136;51.478;-2.610;2023-01-01T11:49:58;99904.29;;;12.59;100.00
55277;BME280;41136;51.478;-2.610;2023-01-01T11:52:26;99909.40;;;12.32;100.00
55277;BME280;41136;51.478;-2.610;2023-01-01T11:54:46;99907.40;;;12.09;100.00
55277;BME280;41136;51.478;-2.610;2023-01-01T11:57:15;99905.38;;;11.86;100.00
55277;BME280;41136;51.478;-2.610;2023-01-01T11:59:44;99906.89;;;11.86;100.00
55277;BME280;41136;51.478;-2.610;2023-01-01T12:02:04;99900.53;;;13.20;100.00
55277;BME280;41136;51.478;-2.610;2023-01-01T12:04:32;99894.62;;;12.62;100.00
55277;BME280;41136;51.478;-2.610;2023-01-01T12:06:58;99895.31;;;12.85;100.00
55277;BME280;41136;51.478;-2.610;2023-01-01T12:09:23;99892.82;;;12.92;100.00
55277;BME280;41136;51.478;-2.610;2023-01-01T12:11:47;99885.31;;;12.95;100.00
55277;BME280;41136;51.478;-2.610;2023-01-01T12:14:18;99879.83;;;12.77;100.00
55277;BME280;41136;51.478;-2.610;2023-01-01T12:16:44;99879.54;;;12.80;100.00
55277;BME280;41136;51.478;-2.610;2023-01-01T12:19:03;99873.80;;;12.45;100.00
55277;BME280;41136;51.478;-2.610;2023-01-01T12:21:27;99878.08;;;12.76;100.00
55277;BME280;41136;51.478;-2.610;2023-01-01T12:23:51;99878.11;;;12.92;100.00
55277;BME280;41136;51.478;-2.610;2023-01-01T12:26:22;99883.14;;;13.36;100.00
55277;BME280;41136;51.478;-2.610;2023-01-01T12:31:14;99873.58;;;12.27;100.00
55277;BME280;41136;51.478;-2.610;2023-01-01T12:33:41;99872.08;;;12.75;100.00
55277;BME280;41136;51.478;-2.610;2023-01-01T12:36:07;99861.80;;;12.82;100.00
55277;BME280;41136;51.478;-2.610;2023-01-01T12:38:36;99864.55;;;12.87;100.00
55277;BME280;41136;51.478;-2.610;2023-01-01T12:40:53;99864.06;;;12.74;100.00
55277;BME280;41136;51.478;-2.610;2023-01-01T12:43:19;99862.41;;;13.79;100.00
55277;BME280;41136;51.478;-2.610;2023-01-01T12:48:17;99869.97;;;13.19;100.00
55277;BME280;41136;51.478;-2.610;2023-01-01T12:50:38;99876.21;;;12.92;100.00